aviador You're here:

KGCN Decoded Metar

GRAND CANYON in AZ, USA
Report Time2018-07-22 03:54:00
UTC Time2018-07-22 04:51:37
Flight Rules vfr VFR
Wind050° at 05 kt
W.Decomp.*RWY 03: 5.0 kt HW 0.5 kt RCW
W.Rank050° ranks 4
Current wind is below 050° avg. (5.9)
Visibility9999 m
Phenomena:N/A
Clouds:Few 120 Hf
Expected CloudBase > 800 ft AGL from Temp-Dew spread
CeilingNone
Temp16°C (ISA +14)
Dew Point14°C (88% RH)
AAT15.5°C
QNH1028 hPa
Density Alt7,992 ft
Elevation6,614 ft
Report Wrong Elevation
Raw Report
KGCN 220354Z AUTO 05005KT 10SM FEW120 16/14 A3035 RMK AO2 SLP171
T01560139 $=

Extra information for KGCN:More info

Metar Taf Metar & Taf Last 4 Metars F.Rules Stats Wind Profile Meteogram Temp Stats Airport Information Weather charts Add Link Nearby VenuesMetar ALERT Operation Metar Decoded Social comments

AIRNAV info for KGCN